Time;durP1;ratioP1;P1;durP2;ratioP2;P2;SDS_P1;SDS_P2;PMS_P1;PMS_P2;Temp;Humidity;BMP_temperature;BMP_pressure;BME280_temperature;BME280_humidity;BME280_pressure;Samples;Min_cycle;Max_cycle;Signal;HPM_P1;HPM_P2
2021/03/07 00:02:50;;;;;;;12.75;6.75;;;21.60;35.40;;;;;;6236867;28;80820;-64
2021/03/07 00:05:51;;;;;;;14.82;7.70;;;21.60;35.30;;;;;;6235890;28;82597;-63
2021/03/07 00:08:51;;;;;;;16.98;8.40;;;21.60;35.40;;;;;;6236867;28;81379;-63
2021/03/07 00:11:52;;;;;;;13.20;6.72;;;21.60;35.20;;;;;;6235579;27;80682;-63
2021/03/07 00:14:52;;;;;;;11.63;6.80;;;21.60;35.10;;;;;;6237832;28;80921;-62
2021/03/07 00:17:53;;;;;;;11.52;6.82;;;21.60;35.00;;;;;;6243042;28;80813;-63
2021/03/07 00:20:53;;;;;;;13.88;7.63;;;21.60;34.90;;;;;;6239400;28;80612;-63
2021/03/07 00:23:54;;;;;;;13.88;7.25;;;21.60;34.70;;;;;;6246797;28;80011;-63
2021/03/07 00:26:54;;;;;;;13.20;7.50;;;21.50;34.50;;;;;;6238762;28;80434;-63
2021/03/07 00:29:55;;;;;;;13.55;7.30;;;21.50;34.50;;;;;;6222438;28;81845;-63
2021/03/07 00:32:55;;;;;;;11.13;7.38;;;21.50;34.30;;;;;;6246708;28;80492;-63
2021/03/07 00:35:56;;;;;;;12.57;6.53;;;21.50;34.20;;;;;;6241093;28;80282;-63
2021/03/07 00:38:56;;;;;;;13.30;7.57;;;21.50;34.20;;;;;;6241940;28;80811;-63
2021/03/07 00:41:57;;;;;;;11.80;6.88;;;21.50;34.00;;;;;;6240382;28;80917;-63
2021/03/07 00:44:58;;;;;;;12.70;7.30;;;21.50;34.00;;;;;;6234536;28;80484;-64
2021/03/07 00:47:58;;;;;;;12.60;6.95;;;21.50;33.90;;;;;;6236019;28;80718;-63
2021/03/07 00:50:59;;;;;;;12.52;6.80;;;21.50;33.90;;;;;;6233932;28;80588;-63
2021/03/07 00:53:59;;;;;;;11.50;7.05;;;21.50;33.80;;;;;;6242022;28;81600;-63
2021/03/07 00:57:00;;;;;;;11.70;7.05;;;21.50;33.70;;;;;;6242183;27;81935;-63
2021/03/07 01:00:00;;;;;;;9.30;6.25;;;21.50;33.70;;;;;;6238108;28;81001;-64
2021/03/07 01:03:01;;;;;;;11.55;6.60;;;21.50;33.60;;;;;;6230105;28;87098;-63
2021/03/07 01:06:01;;;;;;;11.70;6.82;;;21.50;33.50;;;;;;6232486;27;82117;-63
2021/03/07 01:09:02;;;;;;;10.15;6.57;;;21.50;33.60;;;;;;6240615;28;80998;-63
2021/03/07 01:12:02;;;;;;;10.88;6.63;;;21.50;33.40;;;;;;6245507;27;81981;-63
2021/03/07 01:15:03;;;;;;;11.10;5.88;;;21.50;33.30;;;;;;6246475;28;80591;-63
2021/03/07 01:18:03;;;;;;;11.70;6.97;;;21.50;33.20;;;;;;6248614;28;83279;-64
2021/03/07 01:21:04;;;;;;;11.63;6.68;;;21.50;33.20;;;;;;6241707;28;80662;-63
2021/03/07 01:24:04;;;;;;;12.20;6.63;;;21.50;33.00;;;;;;6236728;28;80385;-63
2021/03/07 01:27:05;;;;;;;9.60;5.72;;;21.40;33.00;;;;;;6224611;28;80806;-63
2021/03/07 01:30:05;;;;;;;11.82;7.03;;;21.40;33.00;;;;;;6237669;28;81160;-63
2021/03/07 01:33:06;;;;;;;12.70;6.53;;;21.50;32.90;;;;;;6236680;28;82782;-62
2021/03/07 01:36:06;;;;;;;14.82;6.78;;;21.40;32.80;;;;;;6243433;27;82335;-62
2021/03/07 01:39:07;;;;;;;11.88;6.13;;;21.50;32.70;;;;;;6240736;28;80381;-63
2021/03/07 01:42:07;;;;;;;10.77;6.35;;;21.40;32.60;;;;;;6235244;28;80873;-63
2021/03/07 01:45:08;;;;;;;11.30;5.90;;;21.50;32.60;;;;;;6234500;28;80424;-63
2021/03/07 01:48:08;;;;;;;11.35;6.57;;;21.40;32.50;;;;;;6232595;28;80436;-63
2021/03/07 01:51:09;;;;;;;14.02;6.18;;;21.40;32.50;;;;;;6238496;28;80521;-63
2021/03/07 01:54:09;;;;;;;11.02;6.10;;;21.40;32.40;;;;;;6238499;28;80664;-63
2021/03/07 01:57:10;;;;;;;7.95;5.45;;;21.40;32.30;;;;;;6234461;28;81040;-63
2021/03/07 02:00:10;;;;;;;10.48;5.75;;;21.40;32.20;;;;;;6240459;28;81053;-62
2021/03/07 02:03:14;;;;;;;9.77;5.63;;;21.40;32.10;;;;;;6241392;28;82122;-63
2021/03/07 02:06:15;;;;;;;9.77;5.70;;;21.40;32.10;;;;;;6243849;28;81408;-63
2021/03/07 02:09:15;;;;;;;11.68;6.20;;;21.40;32.00;;;;;;6247974;28;80697;-63
2021/03/07 02:12:16;;;;;;;7.35;5.20;;;21.40;32.00;;;;;;6244545;28;84347;-63
2021/03/07 02:15:16;;;;;;;9.32;5.72;;;21.40;31.90;;;;;;6238579;28;83767;-63
2021/03/07 02:18:17;;;;;;;10.27;6.10;;;21.40;31.80;;;;;;6236299;28;80511;-63
2021/03/07 02:21:17;;;;;;;10.00;5.40;;;21.40;31.80;;;;;;6233146;28;81405;-62
2021/03/07 02:24:18;;;;;;;9.30;5.30;;;21.40;31.60;;;;;;6246422;28;80803;-61
2021/03/07 02:27:18;;;;;;;11.02;5.28;;;21.40;31.70;;;;;;6235487;28;80697;-63
2021/03/07 02:30:19;;;;;;;9.70;5.78;;;21.40;31.50;;;;;;6234491;27;80799;-63
2021/03/07 02:33:19;;;;;;;9.38;5.20;;;21.40;31.60;;;;;;6235588;28;81426;-63
2021/03/07 02:36:20;;;;;;;9.70;5.70;;;21.40;31.50;;;;;;6241394;28;80608;-63
2021/03/07 02:39:20;;;;;;;8.90;5.30;;;21.40;31.40;;;;;;6238291;28;81561;-63
2021/03/07 02:42:21;;;;;;;8.45;5.22;;;21.40;31.30;;;;;;6238599;28;80279;-63
2021/03/07 02:45:21;;;;;;;7.65;5.15;;;21.40;31.30;;;;;;6249098;28;81500;-63
2021/03/07 02:48:22;;;;;;;9.45;5.38;;;21.30;31.90;;;;;;6241335;27;80326;-63
2021/03/07 02:51:23;;;;;;;6.88;4.70;;;21.40;31.30;;;;;;6250658;28;80515;-63
2021/03/07 02:54:23;;;;;;;11.05;5.75;;;21.40;31.20;;;;;;6242476;28;80459;-62
2021/03/07 02:57:24;;;;;;;8.98;5.57;;;21.40;31.10;;;;;;6239999;28;80647;-63
2021/03/07 03:00:24;;;;;;;8.52;5.05;;;21.30;31.00;;;;;;6237118;27;81298;-63
2021/03/07 03:03:25;;;;;;;10.65;6.22;;;21.30;31.00;;;;;;6239271;28;80644;-63
2021/03/07 03:06:25;;;;;;;7.50;4.60;;;21.30;30.80;;;;;;6246019;27;81197;-63
2021/03/07 03:09:26;;;;;;;9.55;5.50;;;21.30;30.80;;;;;;6250829;28;80811;-62
2021/03/07 03:12:26;;;;;;;9.50;5.60;;;21.30;30.80;;;;;;6232910;27;80698;-63
2021/03/07 03:15:27;;;;;;;9.18;5.00;;;21.30;30.80;;;;;;6246192;28;81007;-63
2021/03/07 03:18:27;;;;;;;7.50;4.85;;;21.30;30.80;;;;;;6249709;28;81539;-63
2021/03/07 03:21:28;;;;;;;8.95;5.35;;;21.30;30.80;;;;;;6237407;28;81043;-63
2021/03/07 03:24:28;;;;;;;9.15;5.72;;;21.30;30.70;;;;;;6223341;28;80380;-63
2021/03/07 03:27:29;;;;;;;8.52;4.90;;;21.30;30.60;;;;;;6241098;28;81372;-64
2021/03/07 03:30:29;;;;;;;8.45;5.00;;;21.30;30.70;;;;;;6239774;27;80678;-62
2021/03/07 03:33:30;;;;;;;10.25;5.32;;;21.30;30.70;;;;;;6251532;28;80890;-62
2021/03/07 03:36:30;;;;;;;7.53;4.65;;;21.30;30.60;;;;;;6240939;28;80853;-62
2021/03/07 03:39:31;;;;;;;7.68;4.70;;;21.30;30.50;;;;;;6238005;28;80310;-63
2021/03/07 03:42:32;;;;;;;7.97;4.78;;;21.30;30.40;;;;;;6235418;28;81008;-63
2021/03/07 03:45:32;;;;;;;7.18;4.53;;;21.30;30.40;;;;;;6242047;28;80859;-63
2021/03/07 03:48:33;;;;;;;8.10;4.97;;;21.30;30.30;;;;;;6244413;27;81475;-63
2021/03/07 03:51:33;;;;;;;8.50;5.03;;;21.30;30.30;;;;;;6235316;28;80301;-64
2021/03/07 03:54:34;;;;;;;6.88;4.60;;;21.30;30.30;;;;;;6237605;28;80690;-64
2021/03/07 03:57:34;;;;;;;8.88;5.00;;;21.30;30.10;;;;;;6239022;28;81948;-64
2021/03/07 04:00:37;;;;;;;7.20;4.72;;;21.30;30.00;;;;;;6243527;27;81649;-64
2021/03/07 04:03:37;;;;;;;8.57;5.35;;;21.30;30.00;;;;;;6240118;28;80322;-63
2021/03/07 04:06:38;;;;;;;7.38;4.47;;;21.30;30.00;;;;;;6236565;28;81027;-64
2021/03/07 04:09:38;;;;;;;9.48;5.72;;;21.30;30.00;;;;;;6243203;28;80604;-63
2021/03/07 04:12:39;;;;;;;8.88;4.63;;;21.30;29.90;;;;;;6238133;28;80852;-63
2021/03/07 04:15:39;;;;;;;8.23;4.72;;;21.30;30.00;;;;;;6235933;28;80664;-64
2021/03/07 04:18:40;;;;;;;7.93;4.90;;;21.30;29.90;;;;;;6219104;27;80949;-64
2021/03/07 04:21:40;;;;;;;6.55;4.03;;;21.30;30.00;;;;;;6229965;28;81810;-64
2021/03/07 04:24:41;;;;;;;7.88;5.10;;;21.20;29.90;;;;;;6241222;28;80880;-65
2021/03/07 04:27:41;;;;;;;7.50;4.95;;;21.30;29.90;;;;;;6240615;28;80492;-65
2021/03/07 04:30:42;;;;;;;7.80;5.00;;;21.20;29.80;;;;;;6241692;27;81369;-64
2021/03/07 04:33:42;;;;;;;7.00;4.22;;;21.20;29.90;;;;;;6241923;27;80438;-65
2021/03/07 04:36:43;;;;;;;6.97;4.97;;;21.20;29.90;;;;;;6234824;28;80934;-64
2021/03/07 04:39:43;;;;;;;6.90;4.05;;;21.30;30.00;;;;;;6237724;27;80255;-65
2021/03/07 04:42:44;;;;;;;6.90;4.40;;;21.30;30.00;;;;;;6236886;28;81256;-64
2021/03/07 04:45:44;;;;;;;5.22;3.70;;;21.30;31.20;;;;;;6240216;28;80569;-63
2021/03/07 04:48:45;;;;;;;7.93;4.95;;;21.30;31.50;;;;;;6245510;28;80933;-64
2021/03/07 04:51:46;;;;;;;10.50;4.97;;;21.40;29.70;;;;;;6242110;28;80445;-64
2021/03/07 04:54:46;;;;;;;7.43;4.50;;;21.50;29.80;;;;;;6235638;28;80815;-64
2021/03/07 04:57:47;;;;;;;7.13;4.35;;;21.60;29.90;;;;;;6233157;28;80504;-63
2021/03/07 05:00:47;;;;;;;6.07;4.20;;;21.60;29.90;;;;;;6216857;28;84060;-63
2021/03/07 05:03:48;;;;;;;7.20;4.63;;;21.70;29.80;;;;;;6244051;27;80674;-62
2021/03/07 05:06:48;;;;;;;7.55;4.57;;;21.70;29.70;;;;;;6236641;27;80969;-60
2021/03/07 05:09:49;;;;;;;7.57;4.53;;;21.80;29.60;;;;;;6237014;28;80927;-62
2021/03/07 05:12:49;;;;;;;6.93;3.80;;;21.80;29.80;;;;;;6240491;28;80377;-61
2021/03/07 05:15:50;;;;;;;7.72;4.78;;;21.90;29.90;;;;;;6236368;28;81475;-62
2021/03/07 05:18:50;;;;;;;8.30;3.83;;;21.90;30.00;;;;;;6225766;28;82177;-61
2021/03/07 05:21:51;;;;;;;6.80;4.32;;;22.00;30.00;;;;;;6235444;28;81037;-61
2021/03/07 05:24:51;;;;;;;7.28;4.32;;;22.00;30.00;;;;;;6235017;28;80980;-60
2021/03/07 05:27:52;;;;;;;6.78;4.65;;;22.00;30.00;;;;;;6234302;28;81543;-61
2021/03/07 05:30:52;;;;;;;6.95;3.72;;;22.00;29.70;;;;;;6235976;28;81790;-60
2021/03/07 05:33:53;;;;;;;7.97;4.80;;;22.10;29.90;;;;;;6236040;28;80618;-61
2021/03/07 05:36:54;;;;;;;7.72;4.57;;;22.10;29.70;;;;;;6245235;28;80906;-60
2021/03/07 05:39:54;;;;;;;7.28;3.97;;;22.10;29.70;;;;;;6236717;28;80904;-59
2021/03/07 05:42:55;;;;;;;7.47;5.03;;;22.10;29.70;;;;;;6242252;27;80828;-60
2021/03/07 05:45:55;;;;;;;7.60;4.85;;;22.10;29.90;;;;;;6246707;28;80430;-60
2021/03/07 05:48:56;;;;;;;9.18;4.60;;;22.20;30.00;;;;;;6242107;28;81623;-61
2021/03/07 05:51:56;;;;;;;10.63;4.78;;;22.20;29.90;;;;;;6249320;28;81149;-60
2021/03/07 05:54:57;;;;;;;9.27;5.43;;;22.30;29.80;;;;;;6233982;28;80500;-60
2021/03/07 05:57:57;;;;;;;9.43;5.25;;;22.30;29.70;;;;;;6229912;28;81603;-60
2021/03/07 06:00:58;;;;;;;8.20;4.68;;;22.30;29.50;;;;;;6229184;28;80844;-62
2021/03/07 06:03:58;;;;;;;10.38;5.00;;;22.30;29.20;;;;;;6216503;28;80754;-60
2021/03/07 06:06:59;;;;;;;7.22;5.03;;;22.40;29.00;;;;;;6237412;28;80544;-60
2021/03/07 06:09:59;;;;;;;9.38;4.95;;;22.40;28.90;;;;;;6218527;27;80602;-61
2021/03/07 06:13:00;;;;;;;9.23;5.43;;;22.40;28.90;;;;;;6246008;28;80676;-60
2021/03/07 06:16:01;;;;;;;9.65;5.40;;;22.40;28.90;;;;;;6246345;27;83564;-61
2021/03/07 06:19:01;;;;;;;7.22;4.55;;;22.40;28.70;;;;;;6243588;28;80491;-62
2021/03/07 06:22:02;;;;;;;8.27;5.13;;;22.40;28.60;;;;;;6224422;28;88028;-61
2021/03/07 06:25:02;;;;;;;11.15;5.45;;;22.50;28.60;;;;;;6240905;28;80230;-61
2021/03/07 06:28:03;;;;;;;8.20;5.25;;;22.50;28.50;;;;;;6213248;28;85351;-61
2021/03/07 06:31:03;;;;;;;9.00;5.97;;;22.50;28.60;;;;;;6242191;28;81034;-61
2021/03/07 06:34:04;;;;;;;10.18;5.90;;;22.60;28.80;;;;;;6247974;28;81703;-61
2021/03/07 06:37:04;;;;;;;11.68;6.30;;;22.50;28.40;;;;;;6251650;28;82139;-60
2021/03/07 06:40:05;;;;;;;13.25;6.22;;;22.60;28.30;;;;;;6246396;28;80787;-61
2021/03/07 06:43:05;;;;;;;12.50;6.68;;;22.60;28.70;;;;;;6239374;28;80974;-60
2021/03/07 06:46:06;;;;;;;10.88;5.97;;;22.70;28.90;;;;;;6247425;28;80297;-61
2021/03/07 06:49:07;;;;;;;12.00;6.78;;;22.80;28.90;;;;;;6232308;28;80651;-61
2021/03/07 06:52:07;;;;;;;11.35;6.28;;;22.80;28.90;;;;;;6239675;28;80268;-60
2021/03/07 06:55:12;;;;;;;11.52;6.53;;;22.80;29.00;;;;;;6245061;28;81526;-60
2021/03/07 06:58:12;;;;;;;14.73;7.05;;;22.90;29.70;;;;;;6242788;28;80890;-60
2021/03/07 07:01:13;;;;;;;8.75;6.40;;;22.90;29.70;;;;;;6245498;28;80410;-61
2021/03/07 07:04:13;;;;;;;13.43;6.72;;;22.90;29.70;;;;;;6223712;28;80657;-61
2021/03/07 07:07:16;;;;;;;9.93;6.57;;;23.00;29.80;;;;;;6240539;28;81291;-61
2021/03/07 07:10:16;;;;;;;14.13;6.93;;;23.00;29.80;;;;;;6247080;27;81490;-61
2021/03/07 07:13:17;;;;;;;11.20;6.13;;;23.00;29.70;;;;;;6226216;28;80327;-61
2021/03/07 07:16:18;;;;;;;13.10;6.47;;;23.10;29.70;;;;;;6244544;28;80654;-61
2021/03/07 07:19:18;;;;;;;9.57;6.05;;;23.10;29.80;;;;;;6219147;28;81464;-61
2021/03/07 07:22:19;;;;;;;10.15;5.82;;;23.10;29.80;;;;;;6237487;28;80219;-60
2021/03/07 07:25:19;;;;;;;9.35;5.60;;;23.10;30.00;;;;;;6236160;28;80505;-61
2021/03/07 07:28:20;;;;;;;12.27;6.03;;;23.10;30.00;;;;;;6244458;28;80817;-63
2021/03/07 07:31:21;;;;;;;10.82;6.28;;;23.10;30.00;;;;;;6235457;28;80658;-58
2021/03/07 07:34:21;;;;;;;12.70;7.07;;;23.10;29.80;;;;;;6236496;28;80391;-62
2021/03/07 07:37:22;;;;;;;9.68;6.10;;;23.00;29.80;;;;;;6236125;28;81392;-62
2021/03/07 07:40:22;;;;;;;8.48;6.20;;;23.00;29.60;;;;;;6239973;28;80612;-62
2021/03/07 07:43:23;;;;;;;10.02;6.40;;;23.00;29.60;;;;;;6244880;28;80340;-60
2021/03/07 07:46:23;;;;;;;11.82;6.28;;;22.90;29.50;;;;;;6239368;28;80632;-60
2021/03/07 07:49:24;;;;;;;10.77;6.63;;;22.90;29.40;;;;;;6239041;27;81349;-60
2021/03/07 07:52:25;;;;;;;11.55;6.00;;;22.90;29.30;;;;;;6249445;28;82273;-61
2021/03/07 07:55:25;;;;;;;10.70;6.50;;;22.90;29.30;;;;;;6230911;28;81674;-63
2021/03/07 07:58:26;;;;;;;13.18;7.10;;;22.90;29.20;;;;;;6248098;28;81173;-61
2021/03/07 08:01:26;;;;;;;12.68;6.57;;;22.90;29.10;;;;;;6237004;28;80885;-60
2021/03/07 08:04:27;;;;;;;11.55;6.65;;;22.90;29.00;;;;;;6245755;28;84239;-61
2021/03/07 08:07:27;;;;;;;10.70;6.35;;;22.90;29.20;;;;;;6228193;28;80216;-61
2021/03/07 08:10:28;;;;;;;12.65;7.10;;;22.90;29.00;;;;;;6244487;28;84039;-59
2021/03/07 08:13:28;;;;;;;11.48;6.47;;;22.90;29.00;;;;;;6223105;28;80625;-59
2021/03/07 08:16:29;;;;;;;12.32;7.55;;;22.90;29.00;;;;;;6244822;28;80297;-61
2021/03/07 08:19:29;;;;;;;10.75;6.93;;;22.90;28.90;;;;;;6244705;28;81476;-61
2021/03/07 08:22:30;;;;;;;156.23;60.17;;;22.90;29.20;;;;;;6237830;28;80905;-61
2021/03/07 08:25:31;;;;;;;396.05;154.07;;;22.90;29.70;;;;;;6225211;28;83422;-61
2021/03/07 08:28:31;;;;;;;384.30;153.43;;;22.80;30.00;;;;;;6233000;28;85683;-61
2021/03/07 08:31:32;;;;;;;365.27;149.38;;;22.90;30.10;;;;;;6233620;27;86328;-61
2021/03/07 08:34:33;;;;;;;473.95;190.80;;;22.90;30.20;;;;;;6232918;28;85996;-61
2021/03/07 08:37:33;;;;;;;611.88;267.60;;;22.90;30.40;;;;;;6224389;28;85323;-62
2021/03/07 08:40:34;;;;;;;538.33;226.52;;;22.90;30.30;;;;;;6226534;28;85990;-61
2021/03/07 08:43:34;;;;;;;363.02;140.93;;;22.90;30.80;;;;;;6236986;28;86357;-60
2021/03/07 08:46:35;;;;;;;293.80;118.47;;;22.90;29.90;;;;;;6224342;28;87098;-60
2021/03/07 08:49:35;;;;;;;287.63;112.63;;;22.90;29.40;;;;;;6227196;28;85522;-61
2021/03/07 08:52:36;;;;;;;258.27;104.80;;;22.90;29.80;;;;;;6239349;28;86523;-60
2021/03/07 08:55:37;;;;;;;246.48;101.78;;;22.90;30.20;;;;;;6231267;27;85721;-59
2021/03/07 08:58:40;;;;;;;220.88;91.18;;;22.90;30.10;;;;;;6238756;28;85895;-59
2021/03/07 09:01:41;;;;;;;196.30;79.47;;;22.90;29.90;;;;;;6234723;27;85948;-59
2021/03/07 09:04:44;;;;;;;170.77;68.35;;;22.90;29.60;;;;;;6229765;28;83939;-61
2021/03/07 09:07:45;;;;;;;158.73;65.78;;;22.90;29.40;;;;;;6235533;28;83935;-61
2021/03/07 09:10:45;;;;;;;164.40;63.75;;;22.90;30.00;;;;;;6238435;28;83705;-60
2021/03/07 09:13:46;;;;;;;128.65;51.42;;;22.90;29.10;;;;;;6241675;28;83056;-60
2021/03/07 09:16:46;;;;;;;120.05;46.50;;;22.90;29.40;;;;;;6240398;28;83753;-62
2021/03/07 09:19:47;;;;;;;90.78;38.78;;;22.90;29.10;;;;;;6239027;28;83813;-62
2021/03/07 09:22:48;;;;;;;83.68;34.10;;;22.80;29.00;;;;;;6246687;28;83998;-63
2021/03/07 09:25:48;;;;;;;68.95;28.02;;;22.80;29.30;;;;;;6240503;28;84434;-61
2021/03/07 09:28:49;;;;;;;70.32;26.33;;;22.80;29.50;;;;;;6214049;28;84206;-61
2021/03/07 09:31:49;;;;;;;55.90;22.30;;;22.80;29.70;;;;;;6234097;27;83545;-73
2021/03/07 09:34:50;;;;;;;48.42;20.20;;;23.50;29.30;;;;;;6226370;28;83429;-69
2021/03/07 09:37:50;;;;;;;40.13;18.00;;;23.90;28.90;;;;;;6240988;28;83278;-72
2021/03/07 09:40:51;;;;;;;37.80;17.73;;;24.00;29.10;;;;;;6230735;28;83392;-70
2021/03/07 09:43:52;;;;;;;35.40;15.93;;;24.10;29.10;;;;;;6242716;28;83520;-71
2021/03/07 09:46:52;;;;;;;29.63;13.70;;;24.20;30.00;;;;;;6217567;28;84421;-70
2021/03/07 09:49:55;;;;;;;27.55;13.00;;;24.20;29.70;;;;;;6218267;28;83422;-71
2021/03/07 09:52:56;;;;;;;25.70;12.48;;;24.20;30.70;;;;;;6241735;28;83412;-69
2021/03/07 09:55:56;;;;;;;28.90;12.55;;;24.30;29.80;;;;;;6235025;28;83010;-70
2021/03/07 09:58:57;;;;;;;22.45;10.48;;;24.30;30.90;;;;;;6230166;28;82968;-69
2021/03/07 10:01:57;;;;;;;17.38;9.43;;;24.30;30.90;;;;;;6236001;27;83641;-69
2021/03/07 10:04:58;;;;;;;16.63;9.07;;;24.30;29.20;;;;;;6242875;28;84260;-70
2021/03/07 10:07:58;;;;;;;17.23;8.88;;;24.30;30.00;;;;;;6238198;28;80757;-69
2021/03/07 10:10:59;;;;;;;16.35;8.30;;;24.30;29.50;;;;;;6238580;28;80783;-70
2021/03/07 10:13:59;;;;;;;14.60;7.65;;;24.30;29.10;;;;;;6243626;28;82029;-72
2021/03/07 10:17:00;;;;;;;15.45;7.93;;;24.30;28.80;;;;;;6240128;28;80518;-70
2021/03/07 10:20:01;;;;;;;12.77;6.85;;;24.30;28.10;;;;;;6245424;28;81253;-72
2021/03/07 10:23:01;;;;;;;19.55;6.88;;;24.30;28.90;;;;;;6241362;28;81536;-70
2021/03/07 10:26:02;;;;;;;14.15;7.10;;;24.40;28.50;;;;;;6205889;28;80838;-69
2021/03/07 10:29:02;;;;;;;10.90;6.10;;;24.30;28.40;;;;;;6245490;28;80479;-69
2021/03/07 10:32:03;;;;;;;11.02;5.90;;;24.30;27.80;;;;;;6235829;27;80338;-69
2021/03/07 10:35:03;;;;;;;10.88;5.88;;;24.30;28.00;;;;;;6225711;28;81430;-69
2021/03/07 10:38:04;;;;;;;11.85;5.45;;;24.30;27.10;;;;;;6242586;28;84153;-69
2021/03/07 10:41:04;;;;;;;11.90;5.68;;;24.30;27.60;;;;;;6218017;28;81225;-69
2021/03/07 10:44:05;;;;;;;11.40;6.60;;;24.40;28.30;;;;;;6235263;28;80384;-69
2021/03/07 10:47:05;;;;;;;15.68;6.05;;;24.40;27.80;;;;;;6234727;28;83540;-68
2021/03/07 10:50:06;;;;;;;15.85;5.63;;;24.40;28.30;;;;;;6237931;28;81868;-67
2021/03/07 10:53:07;;;;;;;16.13;5.80;;;24.40;27.80;;;;;;6238146;28;80680;-67
2021/03/07 10:56:07;;;;;;;31.48;9.20;;;24.40;28.70;;;;;;6248952;27;80440;-69
2021/03/07 10:59:08;;;;;;;20.02;6.85;;;24.50;29.00;;;;;;6226019;28;82117;-68
2021/03/07 11:02:08;;;;;;;24.98;8.80;;;24.40;28.80;;;;;;6224822;28;81271;-65
2021/03/07 11:05:09;;;;;;;20.85;8.30;;;24.50;28.50;;;;;;6243904;27;80765;-66
2021/03/07 11:08:10;;;;;;;26.65;9.63;;;24.50;28.50;;;;;;6239689;28;81522;-69
2021/03/07 11:11:10;;;;;;;22.55;8.70;;;24.50;28.20;;;;;;6250422;28;80625;-66
2021/03/07 11:14:11;;;;;;;23.95;7.85;;;24.50;27.90;;;;;;6242031;28;81016;-66
2021/03/07 11:17:11;;;;;;;27.25;8.82;;;24.50;27.60;;;;;;6239891;28;80768;-67
2021/03/07 11:20:12;;;;;;;25.95;9.93;;;24.50;28.20;;;;;;6250034;28;80454;-66
2021/03/07 11:23:13;;;;;;;29.60;9.10;;;24.50;27.90;;;;;;6225666;28;81355;-66
2021/03/07 11:26:13;;;;;;;30.25;10.30;;;24.60;28.30;;;;;;6252349;28;80517;-66
2021/03/07 11:29:14;;;;;;;22.73;9.88;;;24.60;27.50;;;;;;6247364;27;91451;-66
2021/03/07 11:32:14;;;;;;;33.63;12.02;;;24.60;27.60;;;;;;6250907;28;83052;-67
2021/03/07 11:35:15;;;;;;;25.95;10.88;;;24.60;27.40;;;;;;6245182;28;85092;-67
2021/03/07 11:38:15;;;;;;;22.70;9.18;;;24.60;28.10;;;;;;6246093;28;84987;-66
2021/03/07 11:41:16;;;;;;;21.75;10.05;;;24.60;28.10;;;;;;6231270;28;86343;-68
2021/03/07 11:44:17;;;;;;;22.48;9.30;;;24.60;27.50;;;;;;6245952;28;83773;-69
2021/03/07 11:47:17;;;;;;;14.95;7.78;;;24.60;27.00;;;;;;6244721;28;83473;-68
2021/03/07 11:50:18;;;;;;;18.42;8.23;;;24.60;28.20;;;;;;6221079;28;80242;-70
2021/03/07 11:53:18;;;;;;;16.15;7.60;;;24.50;27.10;;;;;;6239573;27;81294;-68
2021/03/07 11:56:19;;;;;;;13.75;7.50;;;24.60;27.30;;;;;;6243640;28;80683;-67
2021/03/07 11:59:19;;;;;;;14.18;6.90;;;24.60;27.00;;;;;;6244011;28;81554;-70
2021/03/07 12:02:20;;;;;;;19.70;8.15;;;24.60;26.90;;;;;;6208253;28;81973;-70
2021/03/07 12:05:21;;;;;;;13.93;6.18;;;24.60;26.80;;;;;;6242308;28;81635;-68
2021/03/07 12:08:21;;;;;;;9.45;5.47;;;24.60;26.80;;;;;;6247701;28;81064;-68
2021/03/07 12:11:22;;;;;;;9.30;5.38;;;24.60;26.40;;;;;;6235610;27;80821;-68
2021/03/07 12:14:22;;;;;;;9.43;4.88;;;24.60;26.20;;;;;;6225836;28;80418;-66
2021/03/07 12:17:23;;;;;;;8.95;4.38;;;24.60;26.00;;;;;;6235147;28;81080;-65
2021/03/07 12:20:23;;;;;;;8.52;4.70;;;24.60;25.70;;;;;;6235067;28;80595;-70
2021/03/07 12:23:24;;;;;;;8.65;5.45;;;24.50;25.60;;;;;;6230198;28;80966;-71
2021/03/07 12:26:25;;;;;;;5.75;4.28;;;24.50;25.10;;;;;;6238597;28;80649;-71
2021/03/07 12:29:25;;;;;;;6.47;4.10;;;24.50;25.70;;;;;;6236785;28;81375;-71
2021/03/07 12:32:26;;;;;;;7.85;4.75;;;24.50;25.30;;;;;;6235688;28;80951;-68
2021/03/07 12:35:26;;;;;;;6.55;4.03;;;24.50;25.30;;;;;;6220595;28;81654;-68
2021/03/07 12:38:27;;;;;;;10.43;4.35;;;24.60;25.20;;;;;;6239221;28;80122;-69
2021/03/07 12:41:27;;;;;;;6.65;4.03;;;24.50;25.10;;;;;;6239747;28;80913;-68
2021/03/07 12:44:28;;;;;;;9.10;4.40;;;24.50;24.60;;;;;;6235945;28;80594;-67
2021/03/07 12:47:28;;;;;;;6.53;3.90;;;24.50;24.30;;;;;;6235636;28;80768;-72
2021/03/07 12:50:29;;;;;;;8.07;4.50;;;24.40;24.50;;;;;;6223965;28;81262;-67
2021/03/07 12:53:30;;;;;;;7.25;4.18;;;24.40;24.00;;;;;;6243428;27;81533;-68
2021/03/07 12:56:30;;;;;;;5.57;3.70;;;24.40;23.90;;;;;;6232943;28;80841;-68
2021/03/07 12:59:31;;;;;;;7.82;3.88;;;24.40;24.10;;;;;;6231628;28;81786;-67
2021/03/07 13:02:32;;;;;;;5.82;3.30;;;24.40;24.30;;;;;;6244813;28;81512;-67
2021/03/07 13:05:32;;;;;;;6.82;3.92;;;24.40;25.10;;;;;;6233033;28;81763;-68
2021/03/07 13:08:33;;;;;;;8.85;4.28;;;24.40;25.40;;;;;;6239337;28;80566;-68
2021/03/07 13:11:34;;;;;;;6.18;3.45;;;24.40;24.80;;;;;;6241384;28;80992;-68
2021/03/07 13:14:34;;;;;;;6.45;4.30;;;24.40;25.90;;;;;;6243037;28;80269;-68
2021/03/07 13:17:35;;;;;;;5.85;3.72;;;24.40;25.10;;;;;;6243524;27;80622;-68
2021/03/07 13:20:36;;;;;;;5.75;3.72;;;24.40;25.40;;;;;;6227327;28;82005;-68
2021/03/07 13:23:37;;;;;;;6.45;3.65;;;24.40;25.60;;;;;;6245916;28;83016;-68
2021/03/07 13:26:37;;;;;;;5.78;3.50;;;24.40;25.30;;;;;;6245356;28;80868;-66
2021/03/07 13:29:39;;;;;;;4.53;3.45;;;24.40;25.50;;;;;;6244450;28;81754;-67
2021/03/07 13:32:40;;;;;;;5.90;3.70;;;24.40;25.20;;;;;;6238316;28;80643;-65
2021/03/07 13:35:40;;;;;;;6.97;4.00;;;24.40;25.40;;;;;;6238729;28;80928;-67
2021/03/07 13:38:41;;;;;;;5.32;3.58;;;24.40;25.50;;;;;;6232676;28;82204;-67
2021/03/07 13:41:41;;;;;;;5.88;3.83;;;24.30;25.30;;;;;;6237113;28;84016;-68
2021/03/07 13:44:42;;;;;;;6.82;3.58;;;24.30;25.00;;;;;;6235006;27;81158;-66
2021/03/07 13:47:43;;;;;;;7.25;3.80;;;24.30;24.90;;;;;;6233672;28;81738;-65
2021/03/07 13:50:43;;;;;;;6.22;3.92;;;24.30;24.50;;;;;;6239396;28;80602;-67
2021/03/07 13:53:44;;;;;;;6.18;3.55;;;24.30;24.70;;;;;;6238410;28;81966;-67
2021/03/07 13:56:44;;;;;;;5.95;3.40;;;24.20;24.70;;;;;;6235059;28;81774;-68
2021/03/07 13:59:45;;;;;;;7.07;4.60;;;24.20;25.30;;;;;;6237066;28;81414;-69
2021/03/07 14:02:45;;;;;;;8.20;4.38;;;24.20;24.60;;;;;;6230112;28;80585;-68
2021/03/07 14:05:46;;;;;;;7.57;3.90;;;24.20;24.40;;;;;;6240234;28;81084;-72
2021/03/07 14:08:47;;;;;;;6.90;4.25;;;24.10;24.40;;;;;;6233273;28;85664;-71
2021/03/07 14:11:47;;;;;;;5.90;4.30;;;24.20;24.30;;;;;;6216058;27;81329;-64
2021/03/07 14:14:48;;;;;;;3.75;3.28;;;24.10;24.60;;;;;;6243027;28;80477;-66
2021/03/07 14:17:48;;;;;;;7.32;3.70;;;24.10;24.40;;;;;;6233771;28;81692;-68
2021/03/07 14:20:49;;;;;;;5.65;3.70;;;24.20;24.80;;;;;;6246479;28;80734;-69
2021/03/07 14:23:49;;;;;;;4.65;3.58;;;24.30;26.10;;;;;;6234113;28;81460;-69
2021/03/07 14:26:50;;;;;;;7.45;3.90;;;24.30;26.10;;;;;;6235065;28;80842;-66
2021/03/07 14:29:51;;;;;;;4.85;3.42;;;24.30;26.40;;;;;;6241242;27;80838;-69
2021/03/07 14:32:51;;;;;;;5.25;3.55;;;24.40;26.80;;;;;;6246370;28;81365;-68
2021/03/07 14:35:52;;;;;;;7.25;3.78;;;24.40;27.10;;;;;;6212741;28;81472;-68
2021/03/07 14:38:52;;;;;;;4.43;3.28;;;24.40;26.30;;;;;;6240925;28;87641;-70
2021/03/07 14:41:53;;;;;;;5.72;3.75;;;24.40;27.50;;;;;;6238168;28;81205;-70
2021/03/07 14:44:54;;;;;;;6.07;3.63;;;24.40;27.40;;;;;;6241909;28;80297;-69
2021/03/07 14:47:54;;;;;;;5.07;3.47;;;24.40;27.00;;;;;;6249813;28;80854;-72
2021/03/07 14:50:55;;;;;;;6.70;3.03;;;24.50;27.50;;;;;;6225666;28;82011;-69
2021/03/07 14:53:55;;;;;;;6.75;3.78;;;24.50;27.60;;;;;;6249781;28;80361;-68
2021/03/07 14:56:56;;;;;;;7.15;3.33;;;24.50;27.60;;;;;;6236111;28;80945;-68
2021/03/07 14:59:56;;;;;;;4.43;2.97;;;24.50;27.50;;;;;;6234871;28;80477;-68
2021/03/07 15:02:57;;;;;;;5.53;3.30;;;24.50;27.40;;;;;;6235412;28;80969;-68
2021/03/07 15:05:58;;;;;;;5.85;3.17;;;24.40;27.50;;;;;;6239423;27;81917;-68
2021/03/07 15:08:58;;;;;;;6.47;3.42;;;24.40;27.50;;;;;;6242264;28;81153;-69
2021/03/07 15:11:59;;;;;;;5.72;3.22;;;24.40;27.30;;;;;;6235050;28;81722;-70
2021/03/07 15:14:59;;;;;;;6.18;3.00;;;24.40;28.10;;;;;;6224397;28;80961;-69
2021/03/07 15:18:00;;;;;;;5.30;3.60;;;24.50;27.70;;;;;;6245669;28;81834;-69
2021/03/07 15:21:00;;;;;;;4.97;3.25;;;24.50;28.60;;;;;;6242037;28;80623;-67
2021/03/07 15:24:01;;;;;;;5.05;3.63;;;24.50;27.30;;;;;;6241438;28;80758;-67
2021/03/07 15:27:05;;;;;;;6.28;3.42;;;24.40;28.30;;;;;;6241456;28;80621;-70
2021/03/07 15:30:07;;;;;;;5.90;3.10;;;24.40;27.70;;;;;;6242695;28;80834;-70
2021/03/07 15:33:07;;;;;;;4.05;3.15;;;24.40;27.60;;;;;;6238786;28;84102;-66